sensor_id;sensor_type;location;lat;lon;timestamp;P1;durP1;ratioP1;P2;durP2;ratioP2
31652;SDS011;18261;53.648;9.910;2022-09-09T00:00:14;58.40;;;37.65;;
31652;SDS011;18261;53.648;9.910;2022-09-09T00:05:22;57.97;;;38.42;;
31652;SDS011;18261;53.648;9.910;2022-09-09T00:07:52;53.13;;;36.80;;
31652;SDS011;18261;53.648;9.910;2022-09-09T00:15:20;58.33;;;39.38;;
31652;SDS011;18261;53.648;9.910;2022-09-09T00:20:16;54.72;;;38.08;;
31652;SDS011;18261;53.648;9.910;2022-09-09T00:23:28;55.22;;;37.90;;
31652;SDS011;18261;53.648;9.910;2022-09-09T00:25:37;65.07;;;41.10;;
31652;SDS011;18261;53.648;9.910;2022-09-09T00:28:23;65.65;;;40.45;;
31652;SDS011;18261;53.648;9.910;2022-09-09T00:30:50;92.63;;;44.20;;
31652;SDS011;18261;53.648;9.910;2022-09-09T00:33:20;77.63;;;41.58;;
31652;SDS011;18261;53.648;9.910;2022-09-09T00:35:48;73.25;;;41.78;;
31652;SDS011;18261;53.648;9.910;2022-09-09T00:38:28;62.88;;;40.45;;
31652;SDS011;18261;53.648;9.910;2022-09-09T00:43:30;67.18;;;42.20;;
31652;SDS011;18261;53.648;9.910;2022-09-09T00:48:23;62.08;;;38.72;;
31652;SDS011;18261;53.648;9.910;2022-09-09T00:50:55;56.55;;;37.83;;
31652;SDS011;18261;53.648;9.910;2022-09-09T00:55:49;66.18;;;42.22;;
31652;SDS011;18261;53.648;9.910;2022-09-09T00:58:19;73.97;;;45.28;;
31652;SDS011;18261;53.648;9.910;2022-09-09T01:08:16;80.88;;;47.85;;
31652;SDS011;18261;53.648;9.910;2022-09-09T01:10:50;86.28;;;50.35;;
31652;SDS011;18261;53.648;9.910;2022-09-09T01:13:26;87.40;;;49.00;;
31652;SDS011;18261;53.648;9.910;2022-09-09T01:15:55;92.65;;;51.20;;
31652;SDS011;18261;53.648;9.910;2022-09-09T01:18:21;88.55;;;51.60;;
31652;SDS011;18261;53.648;9.910;2022-09-09T01:26:15;88.32;;;49.80;;
31652;SDS011;18261;53.648;9.910;2022-09-09T01:28:44;88.13;;;48.05;;
31652;SDS011;18261;53.648;9.910;2022-09-09T01:31:11;87.95;;;48.92;;
31652;SDS011;18261;53.648;9.910;2022-09-09T01:33:38;97.75;;;53.00;;
31652;SDS011;18261;53.648;9.910;2022-09-09T01:36:47;103.25;;;55.45;;
31652;SDS011;18261;53.648;9.910;2022-09-09T01:38:53;99.05;;;51.78;;
31652;SDS011;18261;53.648;9.910;2022-09-09T01:41:19;107.10;;;51.05;;
31652;SDS011;18261;53.648;9.910;2022-09-09T01:43:45;101.00;;;52.13;;
31652;SDS011;18261;53.648;9.910;2022-09-09T01:46:11;94.13;;;50.58;;
31652;SDS011;18261;53.648;9.910;2022-09-09T01:48:37;91.75;;;50.83;;
31652;SDS011;18261;53.648;9.910;2022-09-09T01:51:03;89.90;;;49.33;;
31652;SDS011;18261;53.648;9.910;2022-09-09T01:53:29;83.43;;;48.70;;
31652;SDS011;18261;53.648;9.910;2022-09-09T01:58:32;92.90;;;49.75;;
31652;SDS011;18261;53.648;9.910;2022-09-09T02:01:10;88.70;;;48.45;;
31652;SDS011;18261;53.648;9.910;2022-09-09T02:03:37;91.65;;;50.55;;
31652;SDS011;18261;53.648;9.910;2022-09-09T02:08:49;80.03;;;46.22;;
31652;SDS011;18261;53.648;9.910;2022-09-09T02:13:42;88.50;;;50.00;;
31652;SDS011;18261;53.648;9.910;2022-09-09T02:21:19;93.10;;;48.28;;
31652;SDS011;18261;53.648;9.910;2022-09-09T02:23:46;83.63;;;48.78;;
31652;SDS011;18261;53.648;9.910;2022-09-09T02:26:14;84.40;;;49.78;;
31652;SDS011;18261;53.648;9.910;2022-09-09T02:28:45;80.97;;;47.97;;
31652;SDS011;18261;53.648;9.910;2022-09-09T02:31:12;79.32;;;45.60;;
31652;SDS011;18261;53.648;9.910;2022-09-09T02:33:41;84.60;;;48.22;;
31652;SDS011;18261;53.648;9.910;2022-09-09T02:36:07;85.35;;;48.13;;
31652;SDS011;18261;53.648;9.910;2022-09-09T02:38:35;75.20;;;43.65;;
31652;SDS011;18261;53.648;9.910;2022-09-09T02:41:03;85.07;;;45.22;;
31652;SDS011;18261;53.648;9.910;2022-09-09T02:43:35;82.43;;;45.08;;
31652;SDS011;18261;53.648;9.910;2022-09-09T02:46:03;75.90;;;42.78;;
31652;SDS011;18261;53.648;9.910;2022-09-09T02:48:36;84.47;;;43.85;;
31652;SDS011;18261;53.648;9.910;2022-09-09T02:51:06;79.82;;;42.90;;
31652;SDS011;18261;53.648;9.910;2022-09-09T02:56:16;76.68;;;40.05;;
31652;SDS011;18261;53.648;9.910;2022-09-09T02:58:44;81.57;;;40.65;;
31652;SDS011;18261;53.648;9.910;2022-09-09T03:01:11;65.47;;;39.10;;
31652;SDS011;18261;53.648;9.910;2022-09-09T03:03:37;77.85;;;43.05;;
31652;SDS011;18261;53.648;9.910;2022-09-09T03:06:04;76.65;;;44.47;;
31652;SDS011;18261;53.648;9.910;2022-09-09T03:08:30;96.78;;;44.75;;
31652;SDS011;18261;53.648;9.910;2022-09-09T03:10:58;74.80;;;42.67;;
31652;SDS011;18261;53.648;9.910;2022-09-09T03:13:26;97.03;;;43.30;;
31652;SDS011;18261;53.648;9.910;2022-09-09T03:15:52;82.65;;;43.30;;
31652;SDS011;18261;53.648;9.910;2022-09-09T03:18:18;76.72;;;43.00;;
31652;SDS011;18261;53.648;9.910;2022-09-09T03:20:44;77.85;;;43.70;;
31652;SDS011;18261;53.648;9.910;2022-09-09T03:23:13;74.55;;;43.47;;
31652;SDS011;18261;53.648;9.910;2022-09-09T03:25:39;75.97;;;43.58;;
31652;SDS011;18261;53.648;9.910;2022-09-09T03:28:05;71.32;;;41.97;;
31652;SDS011;18261;53.648;9.910;2022-09-09T03:30:31;68.57;;;39.97;;
31652;SDS011;18261;53.648;9.910;2022-09-09T03:32:57;73.95;;;40.97;;
31652;SDS011;18261;53.648;9.910;2022-09-09T03:35:23;68.25;;;41.22;;
31652;SDS011;18261;53.648;9.910;2022-09-09T03:37:49;67.85;;;40.72;;
31652;SDS011;18261;53.648;9.910;2022-09-09T03:40:15;67.90;;;39.50;;
31652;SDS011;18261;53.648;9.910;2022-09-09T03:42:41;67.07;;;40.03;;
31652;SDS011;18261;53.648;9.910;2022-09-09T03:45:08;62.53;;;38.20;;
31652;SDS011;18261;53.648;9.910;2022-09-09T03:47:35;62.45;;;38.25;;
31652;SDS011;18261;53.648;9.910;2022-09-09T03:50:01;59.75;;;36.65;;
31652;SDS011;18261;53.648;9.910;2022-09-09T03:52:29;55.58;;;36.42;;
31652;SDS011;18261;53.648;9.910;2022-09-09T03:54:55;57.80;;;35.90;;
31652;SDS011;18261;53.648;9.910;2022-09-09T03:57:21;57.08;;;36.63;;
31652;SDS011;18261;53.648;9.910;2022-09-09T03:59:47;56.17;;;35.40;;
31652;SDS011;18261;53.648;9.910;2022-09-09T04:02:13;53.38;;;33.90;;
31652;SDS011;18261;53.648;9.910;2022-09-09T04:04:40;49.08;;;31.85;;
31652;SDS011;18261;53.648;9.910;2022-09-09T04:07:06;45.92;;;30.83;;
31652;SDS011;18261;53.648;9.910;2022-09-09T04:09:32;51.22;;;32.95;;
31652;SDS011;18261;53.648;9.910;2022-09-09T04:11:58;51.45;;;32.72;;
31652;SDS011;18261;53.648;9.910;2022-09-09T04:14:24;48.80;;;33.10;;
31652;SDS011;18261;53.648;9.910;2022-09-09T04:16:53;50.30;;;33.50;;
31652;SDS011;18261;53.648;9.910;2022-09-09T04:19:20;45.80;;;31.58;;
31652;SDS011;18261;53.648;9.910;2022-09-09T04:21:46;45.72;;;28.75;;
31652;SDS011;18261;53.648;9.910;2022-09-09T04:24:16;45.47;;;31.92;;
31652;SDS011;18261;53.648;9.910;2022-09-09T04:26:42;44.35;;;28.90;;
31652;SDS011;18261;53.648;9.910;2022-09-09T04:29:08;44.75;;;29.20;;
31652;SDS011;18261;53.648;9.910;2022-09-09T04:31:34;41.22;;;28.02;;
31652;SDS011;18261;53.648;9.910;2022-09-09T04:34:00;39.95;;;28.77;;
31652;SDS011;18261;53.648;9.910;2022-09-09T04:36:30;42.55;;;28.05;;
31652;SDS011;18261;53.648;9.910;2022-09-09T04:38:56;39.53;;;27.17;;
31652;SDS011;18261;53.648;9.910;2022-09-09T04:41:22;38.42;;;25.65;;
31652;SDS011;18261;53.648;9.910;2022-09-09T04:43:48;39.47;;;26.35;;
31652;SDS011;18261;53.648;9.910;2022-09-09T04:46:14;36.10;;;25.27;;
31652;SDS011;18261;53.648;9.910;2022-09-09T04:48:43;37.85;;;26.23;;
31652;SDS011;18261;53.648;9.910;2022-09-09T04:51:11;34.60;;;24.33;;
31652;SDS011;18261;53.648;9.910;2022-09-09T04:53:38;35.28;;;24.42;;
31652;SDS011;18261;53.648;9.910;2022-09-09T04:56:08;35.85;;;24.20;;
31652;SDS011;18261;53.648;9.910;2022-09-09T04:58:35;36.85;;;24.38;;
31652;SDS011;18261;53.648;9.910;2022-09-09T05:01:03;40.53;;;25.73;;
31652;SDS011;18261;53.648;9.910;2022-09-09T05:03:29;35.30;;;24.15;;
31652;SDS011;18261;53.648;9.910;2022-09-09T05:06:01;32.80;;;21.75;;
31652;SDS011;18261;53.648;9.910;2022-09-09T05:08:28;35.17;;;23.48;;
31652;SDS011;18261;53.648;9.910;2022-09-09T05:10:54;42.70;;;24.27;;
31652;SDS011;18261;53.648;9.910;2022-09-09T05:13:20;31.70;;;22.73;;
31652;SDS011;18261;53.648;9.910;2022-09-09T05:15:54;32.97;;;21.98;;
31652;SDS011;18261;53.648;9.910;2022-09-09T05:18:20;30.92;;;22.52;;
31652;SDS011;18261;53.648;9.910;2022-09-09T05:20:47;31.88;;;21.80;;
31652;SDS011;18261;53.648;9.910;2022-09-09T05:23:14;29.58;;;21.05;;
31652;SDS011;18261;53.648;9.910;2022-09-09T05:25:40;33.00;;;22.80;;
31652;SDS011;18261;53.648;9.910;2022-09-09T05:28:06;33.78;;;22.27;;
31652;SDS011;18261;53.648;9.910;2022-09-09T05:30:32;31.25;;;21.25;;
31652;SDS011;18261;53.648;9.910;2022-09-09T05:32:58;29.80;;;21.42;;
31652;SDS011;18261;53.648;9.910;2022-09-09T05:35:24;29.05;;;20.08;;
31652;SDS011;18261;53.648;9.910;2022-09-09T05:37:50;31.42;;;20.10;;
31652;SDS011;18261;53.648;9.910;2022-09-09T05:40:17;31.08;;;20.55;;
31652;SDS011;18261;53.648;9.910;2022-09-09T05:42:43;26.60;;;19.95;;
31652;SDS011;18261;53.648;9.910;2022-09-09T05:45:09;26.58;;;18.05;;
31652;SDS011;18261;53.648;9.910;2022-09-09T05:47:35;26.83;;;18.13;;
31652;SDS011;18261;53.648;9.910;2022-09-09T05:50:02;29.77;;;18.45;;
31652;SDS011;18261;53.648;9.910;2022-09-09T05:52:28;28.15;;;18.83;;
31652;SDS011;18261;53.648;9.910;2022-09-09T05:54:54;24.25;;;17.65;;
31652;SDS011;18261;53.648;9.910;2022-09-09T05:57:21;27.20;;;17.77;;
31652;SDS011;18261;53.648;9.910;2022-09-09T05:59:47;30.67;;;18.67;;
31652;SDS011;18261;53.648;9.910;2022-09-09T06:02:14;26.75;;;17.33;;
31652;SDS011;18261;53.648;9.910;2022-09-09T06:04:40;24.40;;;16.85;;
31652;SDS011;18261;53.648;9.910;2022-09-09T06:07:06;25.05;;;15.30;;
31652;SDS011;18261;53.648;9.910;2022-09-09T06:09:33;24.02;;;17.42;;
31652;SDS011;18261;53.648;9.910;2022-09-09T06:11:59;24.58;;;16.63;;
31652;SDS011;18261;53.648;9.910;2022-09-09T06:14:25;24.25;;;15.38;;
31652;SDS011;18261;53.648;9.910;2022-09-09T06:16:51;18.55;;;14.20;;
31652;SDS011;18261;53.648;9.910;2022-09-09T06:19:17;25.95;;;15.27;;
31652;SDS011;18261;53.648;9.910;2022-09-09T06:21:45;22.98;;;14.68;;
31652;SDS011;18261;53.648;9.910;2022-09-09T06:24:12;17.40;;;13.18;;
31652;SDS011;18261;53.648;9.910;2022-09-09T06:26:42;19.83;;;12.65;;
31652;SDS011;18261;53.648;9.910;2022-09-09T06:29:08;25.35;;;13.40;;
31652;SDS011;18261;53.648;9.910;2022-09-09T06:31:35;18.67;;;12.30;;
31652;SDS011;18261;53.648;9.910;2022-09-09T06:34:02;21.10;;;13.15;;
31652;SDS011;18261;53.648;9.910;2022-09-09T06:36:28;18.83;;;11.25;;
31652;SDS011;18261;53.648;9.910;2022-09-09T06:38:55;18.75;;;11.30;;
31652;SDS011;18261;53.648;9.910;2022-09-09T06:41:21;19.10;;;11.70;;
31652;SDS011;18261;53.648;9.910;2022-09-09T06:43:48;20.08;;;11.10;;
31652;SDS011;18261;53.648;9.910;2022-09-09T06:46:15;17.88;;;9.85;;
31652;SDS011;18261;53.648;9.910;2022-09-09T06:48:42;17.13;;;8.77;;
31652;SDS011;18261;53.648;9.910;2022-09-09T06:51:13;15.73;;;8.88;;
31652;SDS011;18261;53.648;9.910;2022-09-09T06:53:39;14.38;;;7.43;;
31652;SDS011;18261;53.648;9.910;2022-09-09T06:58:41;13.65;;;6.55;;
31652;SDS011;18261;53.648;9.910;2022-09-09T07:01:09;15.60;;;6.38;;
31652;SDS011;18261;53.648;9.910;2022-09-09T07:03:40;18.02;;;6.80;;
31652;SDS011;18261;53.648;9.910;2022-09-09T07:06:07;11.10;;;5.57;;
31652;SDS011;18261;53.648;9.910;2022-09-09T07:08:34;11.85;;;6.15;;
31652;SDS011;18261;53.648;9.910;2022-09-09T07:11:04;12.88;;;6.05;;
31652;SDS011;18261;53.648;9.910;2022-09-09T07:13:30;15.07;;;6.40;;
31652;SDS011;18261;53.648;9.910;2022-09-09T07:16:03;13.02;;;5.70;;
31652;SDS011;18261;53.648;9.910;2022-09-09T07:18:29;16.55;;;6.30;;
31652;SDS011;18261;53.648;9.910;2022-09-09T07:20:55;15.32;;;6.43;;
31652;SDS011;18261;53.648;9.910;2022-09-09T07:23:21;13.13;;;5.70;;
31652;SDS011;18261;53.648;9.910;2022-09-09T07:25:47;13.90;;;5.70;;
31652;SDS011;18261;53.648;9.910;2022-09-09T07:28:14;13.10;;;6.28;;
31652;SDS011;18261;53.648;9.910;2022-09-09T07:30:40;16.85;;;6.35;;
31652;SDS011;18261;53.648;9.910;2022-09-09T07:33:07;10.50;;;4.95;;
31652;SDS011;18261;53.648;9.910;2022-09-09T07:35:34;13.63;;;5.70;;
31652;SDS011;18261;53.648;9.910;2022-09-09T07:38:02;14.93;;;5.43;;
31652;SDS011;18261;53.648;9.910;2022-09-09T07:40:31;12.95;;;5.18;;
31652;SDS011;18261;53.648;9.910;2022-09-09T07:42:57;10.13;;;4.63;;
31652;SDS011;18261;53.648;9.910;2022-09-09T07:45:24;12.52;;;4.70;;
31652;SDS011;18261;53.648;9.910;2022-09-09T07:47:50;15.32;;;4.80;;
31652;SDS011;18261;53.648;9.910;2022-09-09T07:50:17;13.45;;;5.60;;
31652;SDS011;18261;53.648;9.910;2022-09-09T07:52:43;23.60;;;7.03;;
31652;SDS011;18261;53.648;9.910;2022-09-09T07:55:09;20.45;;;5.75;;
31652;SDS011;18261;53.648;9.910;2022-09-09T07:57:35;13.15;;;5.10;;
31652;SDS011;18261;53.648;9.910;2022-09-09T08:00:02;14.02;;;5.32;;
31652;SDS011;18261;53.648;9.910;2022-09-09T08:02:28;11.35;;;4.72;;
31652;SDS011;18261;53.648;9.910;2022-09-09T08:04:55;9.82;;;4.30;;
31652;SDS011;18261;53.648;9.910;2022-09-09T08:07:21;11.55;;;5.35;;
31652;SDS011;18261;53.648;9.910;2022-09-09T08:09:48;16.67;;;5.45;;
31652;SDS011;18261;53.648;9.910;2022-09-09T08:12:14;14.77;;;4.78;;
31652;SDS011;18261;53.648;9.910;2022-09-09T08:14:40;11.85;;;4.78;;
31652;SDS011;18261;53.648;9.910;2022-09-09T08:17:06;14.95;;;4.55;;
31652;SDS011;18261;53.648;9.910;2022-09-09T08:19:32;15.23;;;4.68;;
31652;SDS011;18261;53.648;9.910;2022-09-09T08:22:00;10.38;;;4.32;;
31652;SDS011;18261;53.648;9.910;2022-09-09T08:24:27;16.17;;;5.47;;
31652;SDS011;18261;53.648;9.910;2022-09-09T08:26:53;16.73;;;4.80;;
31652;SDS011;18261;53.648;9.910;2022-09-09T08:29:19;11.45;;;4.40;;
31652;SDS011;18261;53.648;9.910;2022-09-09T08:31:47;9.98;;;5.07;;
31652;SDS011;18261;53.648;9.910;2022-09-09T08:34:13;10.57;;;4.15;;
31652;SDS011;18261;53.648;9.910;2022-09-09T08:36:40;8.68;;;3.85;;
31652;SDS011;18261;53.648;9.910;2022-09-09T08:39:11;10.02;;;4.53;;
31652;SDS011;18261;53.648;9.910;2022-09-09T08:44:22;10.55;;;3.72;;
31652;SDS011;18261;53.648;9.910;2022-09-09T08:51:48;8.93;;;4.03;;
31652;SDS011;18261;53.648;9.910;2022-09-09T08:54:14;9.35;;;3.50;;
31652;SDS011;18261;53.648;9.910;2022-09-09T08:56:40;10.18;;;3.65;;
31652;SDS011;18261;53.648;9.910;2022-09-09T08:59:07;10.10;;;3.70;;
31652;SDS011;18261;53.648;9.910;2022-09-09T09:12:01;6.00;;;2.83;;
31652;SDS011;18261;53.648;9.910;2022-09-09T09:14:29;5.68;;;3.00;;
31652;SDS011;18261;53.648;9.910;2022-09-09T09:19:22;6.75;;;2.67;;
31652;SDS011;18261;53.648;9.910;2022-09-09T09:24:36;13.77;;;3.05;;
31652;SDS011;18261;53.648;9.910;2022-09-09T09:27:14;9.68;;;3.03;;
31652;SDS011;18261;53.648;9.910;2022-09-09T09:29:40;9.40;;;2.78;;
31652;SDS011;18261;53.648;9.910;2022-09-09T09:32:08;10.30;;;2.75;;
31652;SDS011;18261;53.648;9.910;2022-09-09T09:34:35;10.25;;;2.97;;
31652;SDS011;18261;53.648;9.910;2022-09-09T09:37:01;8.00;;;2.78;;
31652;SDS011;18261;53.648;9.910;2022-09-09T09:39:32;8.70;;;2.67;;
31652;SDS011;18261;53.648;9.910;2022-09-09T09:42:11;9.13;;;2.72;;
31652;SDS011;18261;53.648;9.910;2022-09-09T09:44:40;12.00;;;3.20;;
31652;SDS011;18261;53.648;9.910;2022-09-09T09:49:38;6.97;;;2.17;;
31652;SDS011;18261;53.648;9.910;2022-09-09T09:52:05;4.68;;;1.60;;
31652;SDS011;18261;53.648;9.910;2022-09-09T09:54:33;10.07;;;2.50;;
31652;SDS011;18261;53.648;9.910;2022-09-09T09:57:14;6.20;;;1.83;;
31652;SDS011;18261;53.648;9.910;2022-09-09T09:59:40;7.03;;;1.75;;
31652;SDS011;18261;53.648;9.910;2022-09-09T10:04:38;4.10;;;1.50;;
31652;SDS011;18261;53.648;9.910;2022-09-09T10:07:16;7.15;;;1.33;;
31652;SDS011;18261;53.648;9.910;2022-09-09T10:09:42;4.65;;;1.25;;
31652;SDS011;18261;53.648;9.910;2022-09-09T10:12:18;5.97;;;1.30;;
31652;SDS011;18261;53.648;9.910;2022-09-09T10:22:27;16.67;;;6.57;;
31652;SDS011;18261;53.648;9.910;2022-09-09T10:35:11;10.68;;;2.78;;
31652;SDS011;18261;53.648;9.910;2022-09-09T10:37:44;7.10;;;2.47;;
31652;SDS011;18261;53.648;9.910;2022-09-09T10:42:56;12.98;;;3.13;;
31652;SDS011;18261;53.648;9.910;2022-09-09T10:53:12;4.95;;;1.92;;
31652;SDS011;18261;53.648;9.910;2022-09-09T10:55:44;5.15;;;1.67;;
31652;SDS011;18261;53.648;9.910;2022-09-09T10:58:16;5.38;;;1.45;;
31652;SDS011;18261;53.648;9.910;2022-09-09T11:00:44;6.10;;;2.10;;
31652;SDS011;18261;53.648;9.910;2022-09-09T11:03:18;6.88;;;1.83;;
31652;SDS011;18261;53.648;9.910;2022-09-09T11:05:49;9.30;;;1.67;;
31652;SDS011;18261;53.648;9.910;2022-09-09T11:08:18;4.35;;;1.92;;
31652;SDS011;18261;53.648;9.910;2022-09-09T11:11:02;4.95;;;1.42;;
31652;SDS011;18261;53.648;9.910;2022-09-09T11:16:25;9.70;;;1.88;;
31652;SDS011;18261;53.648;9.910;2022-09-09T11:18:55;4.88;;;1.55;;
31652;SDS011;18261;53.648;9.910;2022-09-09T11:21:28;5.55;;;1.50;;
31652;SDS011;18261;53.648;9.910;2022-09-09T11:24:02;9.40;;;1.95;;
31652;SDS011;18261;53.648;9.910;2022-09-09T11:26:37;5.47;;;1.70;;
31652;SDS011;18261;53.648;9.910;2022-09-09T11:37:06;5.13;;;1.58;;
31652;SDS011;18261;53.648;9.910;2022-09-09T11:44:45;6.72;;;1.45;;
31652;SDS011;18261;53.648;9.910;2022-09-09T11:49:49;8.20;;;1.48;;
31652;SDS011;18261;53.648;9.910;2022-09-09T11:52:22;6.63;;;1.40;;
31652;SDS011;18261;53.648;9.910;2022-09-09T11:54:50;6.55;;;1.23;;
31652;SDS011;18261;53.648;9.910;2022-09-09T11:57:24;5.20;;;1.55;;
31652;SDS011;18261;53.648;9.910;2022-09-09T11:59:51;6.60;;;1.50;;
31652;SDS011;18261;53.648;9.910;2022-09-09T12:02:27;4.68;;;1.48;;
31652;SDS011;18261;53.648;9.910;2022-09-09T12:05:08;7.10;;;1.63;;
31652;SDS011;18261;53.648;9.910;2022-09-09T12:12:34;6.30;;;1.45;;
31652;SDS011;18261;53.648;9.910;2022-09-09T12:17:49;7.55;;;1.30;;
31652;SDS011;18261;53.648;9.910;2022-09-09T12:25:26;8.82;;;1.40;;
31652;SDS011;18261;53.648;9.910;2022-09-09T12:28:09;4.60;;;1.27;;
31652;SDS011;18261;53.648;9.910;2022-09-09T12:33:12;7.93;;;2.22;;
31652;SDS011;18261;53.648;9.910;2022-09-09T12:35:38;9.20;;;1.92;;
31652;SDS011;18261;53.648;9.910;2022-09-09T12:38:05;6.00;;;2.35;;
31652;SDS011;18261;53.648;9.910;2022-09-09T12:40:34;6.55;;;2.17;;
31652;SDS011;18261;53.648;9.910;2022-09-09T12:43:01;5.80;;;1.70;;
31652;SDS011;18261;53.648;9.910;2022-09-09T12:45:31;9.57;;;1.75;;
31652;SDS011;18261;53.648;9.910;2022-09-09T12:48:01;10.95;;;1.60;;
31652;SDS011;18261;53.648;9.910;2022-09-09T12:50:30;4.65;;;1.70;;
31652;SDS011;18261;53.648;9.910;2022-09-09T12:53:42;7.45;;;1.73;;
31652;SDS011;18261;53.648;9.910;2022-09-09T12:55:49;11.52;;;2.28;;
31652;SDS011;18261;53.648;9.910;2022-09-09T12:58:17;8.55;;;2.35;;
31652;SDS011;18261;53.648;9.910;2022-09-09T13:00:50;10.15;;;2.50;;
31652;SDS011;18261;53.648;9.910;2022-09-09T13:03:21;7.15;;;1.60;;
31652;SDS011;18261;53.648;9.910;2022-09-09T13:05:48;13.88;;;2.05;;
31652;SDS011;18261;53.648;9.910;2022-09-09T13:08:15;8.60;;;1.75;;
31652;SDS011;18261;53.648;9.910;2022-09-09T13:10:52;7.10;;;2.00;;
31652;SDS011;18261;53.648;9.910;2022-09-09T13:13:23;14.85;;;2.08;;
31652;SDS011;18261;53.648;9.910;2022-09-09T13:15:55;6.03;;;2.25;;
31652;SDS011;18261;53.648;9.910;2022-09-09T13:18:22;8.20;;;2.42;;
31652;SDS011;18261;53.648;9.910;2022-09-09T13:20:49;11.10;;;2.40;;
31652;SDS011;18261;53.648;9.910;2022-09-09T13:23:16;10.20;;;2.42;;
31652;SDS011;18261;53.648;9.910;2022-09-09T13:25:52;18.17;;;4.25;;
31652;SDS011;18261;53.648;9.910;2022-09-09T13:28:20;13.15;;;4.13;;
31652;SDS011;18261;53.648;9.910;2022-09-09T13:30:54;28.55;;;5.07;;
31652;SDS011;18261;53.648;9.910;2022-09-09T13:33:24;15.52;;;3.67;;
31652;SDS011;18261;53.648;9.910;2022-09-09T13:35:58;13.45;;;3.60;;
31652;SDS011;18261;53.648;9.910;2022-09-09T13:38:24;12.00;;;3.83;;
31652;SDS011;18261;53.648;9.910;2022-09-09T13:40:52;14.50;;;3.55;;
31652;SDS011;18261;53.648;9.910;2022-09-09T13:43:21;11.38;;;3.63;;
31652;SDS011;18261;53.648;9.910;2022-09-09T13:45:58;8.75;;;2.53;;
31652;SDS011;18261;53.648;9.910;2022-09-09T13:48:24;7.82;;;2.00;;
31652;SDS011;18261;53.648;9.910;2022-09-09T13:50:54;6.75;;;1.85;;
31652;SDS011;18261;53.648;9.910;2022-09-09T13:53:20;6.60;;;1.70;;
31652;SDS011;18261;53.648;9.910;2022-09-09T13:55:46;5.82;;;1.67;;
31652;SDS011;18261;53.648;9.910;2022-09-09T13:58:15;4.63;;;1.50;;
31652;SDS011;18261;53.648;9.910;2022-09-09T14:00:45;34.85;;;20.17;;
31652;SDS011;18261;53.648;9.910;2022-09-09T14:03:11;7.30;;;3.20;;
31652;SDS011;18261;53.648;9.910;2022-09-09T14:05:37;17.65;;;9.60;;
31652;SDS011;18261;53.648;9.910;2022-09-09T14:08:04;12.07;;;3.50;;
31652;SDS011;18261;53.648;9.910;2022-09-09T14:10:31;9.60;;;3.03;;
31652;SDS011;18261;53.648;9.910;2022-09-09T14:12:57;10.93;;;4.00;;
31652;SDS011;18261;53.648;9.910;2022-09-09T14:15:23;9.57;;;3.17;;
31652;SDS011;18261;53.648;9.910;2022-09-09T14:17:49;10.32;;;3.65;;
31652;SDS011;18261;53.648;9.910;2022-09-09T14:20:17;12.52;;;4.28;;
31652;SDS011;18261;53.648;9.910;2022-09-09T14:22:44;11.50;;;4.13;;
31652;SDS011;18261;53.648;9.910;2022-09-09T14:25:10;10.55;;;3.85;;
31652;SDS011;18261;53.648;9.910;2022-09-09T14:27:38;11.00;;;3.75;;
31652;SDS011;18261;53.648;9.910;2022-09-09T14:30:04;14.05;;;3.85;;
31652;SDS011;18261;53.648;9.910;2022-09-09T14:32:30;11.57;;;3.75;;
31652;SDS011;18261;53.648;9.910;2022-09-09T14:34:56;15.98;;;4.10;;
31652;SDS011;18261;53.648;9.910;2022-09-09T14:37:22;13.20;;;5.55;;
31652;SDS011;18261;53.648;9.910;2022-09-09T14:39:49;21.63;;;11.45;;
31652;SDS011;18261;53.648;9.910;2022-09-09T14:42:15;17.40;;;4.60;;
31652;SDS011;18261;53.648;9.910;2022-09-09T14:44:41;14.02;;;3.80;;
31652;SDS011;18261;53.648;9.910;2022-09-09T14:47:08;12.65;;;4.05;;
31652;SDS011;18261;53.648;9.910;2022-09-09T14:49:34;16.27;;;4.13;;
31652;SDS011;18261;53.648;9.910;2022-09-09T14:52:01;10.82;;;4.22;;
31652;SDS011;18261;53.648;9.910;2022-09-09T14:54:27;16.20;;;5.20;;
31652;SDS011;18261;53.648;9.910;2022-09-09T14:56:54;17.00;;;8.15;;
31652;SDS011;18261;53.648;9.910;2022-09-09T14:59:20;14.30;;;4.65;;
31652;SDS011;18261;53.648;9.910;2022-09-09T15:01:47;13.00;;;5.75;;
31652;SDS011;18261;53.648;9.910;2022-09-09T15:04:13;11.48;;;5.53;;
31652;SDS011;18261;53.648;9.910;2022-09-09T15:06:39;18.00;;;7.93;;
31652;SDS011;18261;53.648;9.910;2022-09-09T15:09:07;14.85;;;4.43;;
31652;SDS011;18261;53.648;9.910;2022-09-09T15:11:34;14.90;;;6.43;;
31652;SDS011;18261;53.648;9.910;2022-09-09T15:14:02;7.65;;;3.58;;
31652;SDS011;18261;53.648;9.910;2022-09-09T15:16:28;13.88;;;3.47;;
31652;SDS011;18261;53.648;9.910;2022-09-09T15:18:55;15.18;;;3.67;;
31652;SDS011;18261;53.648;9.910;2022-09-09T15:21:23;7.97;;;3.10;;
31652;SDS011;18261;53.648;9.910;2022-09-09T15:23:49;9.15;;;3.80;;
31652;SDS011;18261;53.648;9.910;2022-09-09T15:26:16;17.92;;;8.75;;
31652;SDS011;18261;53.648;9.910;2022-09-09T15:28:43;15.13;;;8.50;;
31652;SDS011;18261;53.648;9.910;2022-09-09T15:31:22;9.13;;;3.85;;
31652;SDS011;18261;53.648;9.910;2022-09-09T15:38:40;7.15;;;2.88;;
31652;SDS011;18261;53.648;9.910;2022-09-09T15:41:06;8.95;;;3.05;;
31652;SDS011;18261;53.648;9.910;2022-09-09T15:43:32;12.80;;;4.57;;
31652;SDS011;18261;53.648;9.910;2022-09-09T15:45:59;11.38;;;3.60;;
31652;SDS011;18261;53.648;9.910;2022-09-09T15:48:31;12.13;;;3.42;;
31652;SDS011;18261;53.648;9.910;2022-09-09T15:51:01;11.38;;;3.30;;
31652;SDS011;18261;53.648;9.910;2022-09-09T15:53:28;9.32;;;3.38;;
31652;SDS011;18261;53.648;9.910;2022-09-09T15:55:55;8.32;;;3.42;;
31652;SDS011;18261;53.648;9.910;2022-09-09T15:58:21;6.00;;;2.85;;
31652;SDS011;18261;53.648;9.910;2022-09-09T16:00:47;11.23;;;3.65;;
31652;SDS011;18261;53.648;9.910;2022-09-09T16:03:13;7.43;;;3.28;;
31652;SDS011;18261;53.648;9.910;2022-09-09T16:05:39;12.40;;;4.57;;
31652;SDS011;18261;53.648;9.910;2022-09-09T16:08:05;14.05;;;4.00;;
31652;SDS011;18261;53.648;9.910;2022-09-09T16:10:31;7.85;;;3.22;;
31652;SDS011;18261;53.648;9.910;2022-09-09T16:12:57;7.47;;;3.00;;
31652;SDS011;18261;53.648;9.910;2022-09-09T16:15:23;12.30;;;5.40;;
31652;SDS011;18261;53.648;9.910;2022-09-09T16:17:50;11.20;;;3.58;;
31652;SDS011;18261;53.648;9.910;2022-09-09T16:20:18;5.55;;;2.50;;
31652;SDS011;18261;53.648;9.910;2022-09-09T16:22:45;8.18;;;3.20;;
31652;SDS011;18261;53.648;9.910;2022-09-09T16:25:11;7.57;;;2.70;;
31652;SDS011;18261;53.648;9.910;2022-09-09T16:27:37;7.72;;;2.55;;
31652;SDS011;18261;53.648;9.910;2022-09-09T16:30:03;13.63;;;7.65;;
31652;SDS011;18261;53.648;9.910;2022-09-09T16:32:29;10.02;;;5.00;;
31652;SDS011;18261;53.648;9.910;2022-09-09T16:34:55;15.95;;;4.22;;
31652;SDS011;18261;53.648;9.910;2022-09-09T16:37:21;9.27;;;3.25;;
31652;SDS011;18261;53.648;9.910;2022-09-09T16:39:47;8.82;;;3.00;;
31652;SDS011;18261;53.648;9.910;2022-09-09T16:42:13;9.82;;;2.83;;
31652;SDS011;18261;53.648;9.910;2022-09-09T16:44:39;10.38;;;3.35;;
31652;SDS011;18261;53.648;9.910;2022-09-09T16:47:06;5.28;;;2.35;;
31652;SDS011;18261;53.648;9.910;2022-09-09T16:49:32;12.40;;;3.25;;
31652;SDS011;18261;53.648;9.910;2022-09-09T16:51:58;5.80;;;2.40;;
31652;SDS011;18261;53.648;9.910;2022-09-09T16:54:24;10.50;;;3.40;;
31652;SDS011;18261;53.648;9.910;2022-09-09T16:56:51;9.38;;;4.00;;
31652;SDS011;18261;53.648;9.910;2022-09-09T16:59:19;7.53;;;3.90;;
31652;SDS011;18261;53.648;9.910;2022-09-09T17:01:46;7.88;;;3.92;;